createdAt,value
2023-03-03T00:00:44.996Z,8.45
2023-03-03T00:03:19.043Z,8.40
2023-03-03T00:06:35.624Z,8.55
2023-03-03T00:09:06.979Z,8.85
2023-03-03T00:11:47.602Z,8.38
2023-03-03T00:14:44.449Z,9.18
2023-03-03T00:17:40.497Z,8.98
2023-03-03T00:20:35.231Z,8.27
2023-03-03T00:23:18.388Z,9.20
2023-03-03T00:25:51.268Z,8.38
2023-03-03T00:28:44.452Z,8.63
2023-03-03T00:31:19.387Z,9.88
2023-03-03T00:33:54.991Z,9.40
2023-03-03T00:36:37.454Z,9.05
2023-03-03T00:39:23.306Z,8.90
2023-03-03T00:41:53.167Z,9.02
2023-03-03T00:44:43.846Z,9.07
2023-03-03T00:47:26.116Z,8.93
2023-03-03T00:50:01.216Z,9.73
2023-03-03T00:52:32.016Z,8.90
2023-03-03T00:55:01.462Z,9.13
2023-03-03T00:57:30.816Z,8.95
2023-03-03T01:00:00.730Z,10.02
2023-03-03T01:02:31.270Z,10.02
2023-03-03T01:05:00.448Z,10.10
2023-03-03T01:07:31.322Z,10.18
2023-03-03T01:10:00.660Z,8.07
2023-03-03T01:12:30.032Z,9.63
2023-03-03T01:14:59.703Z,9.57
2023-03-03T01:17:29.040Z,9.10
2023-03-03T01:19:59.773Z,8.82
2023-03-03T01:22:29.488Z,8.57
2023-03-03T01:25:00.420Z,8.85
2023-03-03T01:27:29.822Z,9.32
2023-03-03T01:29:59.390Z,9.05
2023-03-03T01:32:30.073Z,8.85
2023-03-03T01:34:59.408Z,8.18
2023-03-03T01:37:28.371Z,8.75
2023-03-03T01:39:57.760Z,8.70
2023-03-03T01:42:29.465Z,7.90
2023-03-03T01:45:16.345Z,8.40
2023-03-03T01:47:50.182Z,9.15
2023-03-03T01:52:51.297Z,8.65
2023-03-03T01:55:24.390Z,7.75
2023-03-03T01:58:01.683Z,7.90
2023-03-03T02:00:33.070Z,7.88
2023-03-03T02:03:03.116Z,7.97
2023-03-03T02:05:33.500Z,8.70
2023-03-03T02:08:03.791Z,8.45
2023-03-03T02:10:33.450Z,7.55
2023-03-03T02:13:04.173Z,8.18
2023-03-03T02:15:36.800Z,7.53
2023-03-03T02:18:09.021Z,8.07
2023-03-03T02:20:48.468Z,8.00
2023-03-03T02:23:23.862Z,7.13
2023-03-03T02:26:08.214Z,8.73
2023-03-03T02:28:39.359Z,7.63
2023-03-03T02:31:18.840Z,7.22
2023-03-03T02:33:50.331Z,6.60
2023-03-03T02:36:21.456Z,7.15
2023-03-03T02:38:57.262Z,7.25
2023-03-03T02:41:37.797Z,7.80
2023-03-03T02:44:10.976Z,7.28
2023-03-03T02:46:42.206Z,7.43
2023-03-03T02:49:14.588Z,7.72
2023-03-03T02:51:44.651Z,7.35
2023-03-03T02:54:15.867Z,7.43
2023-03-03T02:56:46.773Z,6.72
2023-03-03T02:59:16.722Z,7.10
2023-03-03T03:01:50.877Z,7.28
2023-03-03T03:04:23.956Z,7.90
2023-03-03T03:06:54.834Z,6.78
2023-03-03T03:09:26.507Z,7.93
2023-03-03T03:11:59.703Z,7.70
2023-03-03T03:14:28.857Z,7.47
2023-03-03T03:16:59.003Z,6.93
2023-03-03T03:19:30.071Z,8.15
2023-03-03T03:22:02.966Z,6.90
2023-03-03T03:24:34.281Z,7.53
2023-03-03T03:27:08.871Z,7.13
2023-03-03T03:29:38.564Z,8.25
2023-03-03T03:32:08.623Z,7.43
2023-03-03T03:34:38.496Z,8.20
2023-03-03T03:37:10.035Z,7.85
2023-03-03T03:39:40.781Z,7.57
2023-03-03T03:42:11.630Z,7.18
2023-03-03T03:44:41.193Z,8.43
2023-03-03T03:47:11.047Z,8.43
2023-03-03T03:49:41.006Z,7.57
2023-03-03T03:52:10.563Z,8.25
2023-03-03T03:54:40.193Z,8.10
2023-03-03T03:57:09.405Z,8.70
2023-03-03T03:59:40.236Z,7.78
2023-03-03T04:02:09.566Z,8.25
2023-03-03T04:04:38.887Z,9.45
2023-03-03T04:07:10.770Z,7.53
2023-03-03T04:09:41.750Z,8.23
2023-03-03T04:12:12.608Z,8.10
2023-03-03T04:14:46.827Z,7.97
2023-03-03T04:17:18.529Z,8.18
2023-03-03T04:19:48.142Z,7.47
2023-03-03T04:22:17.767Z,7.50
2023-03-03T04:24:48.756Z,7.90
2023-03-03T04:27:19.628Z,7.13
2023-03-03T04:29:50.677Z,7.78
2023-03-03T04:32:20.265Z,7.07
2023-03-03T04:34:58.712Z,7.40
2023-03-03T04:37:37.649Z,8.10
2023-03-03T04:40:10.103Z,7.63
2023-03-03T04:42:40.422Z,8.15
2023-03-03T04:45:13.545Z,8.75
2023-03-03T04:47:43.944Z,8.52
2023-03-03T04:50:13.595Z,8.75
2023-03-03T04:52:43.513Z,8.68
2023-03-03T04:55:14.378Z,8.18
2023-03-03T04:57:43.923Z,8.70
2023-03-03T05:00:17.678Z,9.80
2023-03-03T05:02:49.793Z,10.30
2023-03-03T05:05:19.131Z,9.52
2023-03-03T05:07:48.510Z,10.20
2023-03-03T05:10:17.863Z,11.65
2023-03-03T05:12:47.218Z,11.10
2023-03-03T05:15:18.154Z,11.35
2023-03-03T05:17:48.341Z,11.85
2023-03-03T05:20:18.528Z,10.88
2023-03-03T05:22:47.943Z,10.48
2023-03-03T05:25:17.387Z,9.98
2023-03-03T05:27:46.684Z,9.90
2023-03-03T05:30:17.708Z,11.30
2023-03-03T05:32:47.218Z,10.55
2023-03-03T05:35:16.507Z,10.13
2023-03-03T05:37:47.962Z,10.48
2023-03-03T05:40:17.707Z,9.82
2023-03-03T05:42:46.984Z,11.48
2023-03-03T05:45:20.589Z,10.50
2023-03-03T05:47:50.021Z,12.00
2023-03-03T05:50:19.909Z,10.18
2023-03-03T05:52:50.026Z,9.70
2023-03-03T05:55:19.749Z,10.52
2023-03-03T05:57:49.907Z,9.70
2023-03-03T06:00:21.826Z,10.90
2023-03-03T06:02:51.465Z,9.07
2023-03-03T06:05:20.780Z,10.32
2023-03-03T06:07:49.912Z,11.05
2023-03-03T06:10:19.427Z,10.10
2023-03-03T06:12:53.130Z,9.82
2023-03-03T06:15:24.167Z,10.05
2023-03-03T06:17:53.852Z,9.95
2023-03-03T06:20:23.088Z,10.75
2023-03-03T06:22:52.718Z,10.57
2023-03-03T06:25:22.421Z,10.05
2023-03-03T06:27:51.618Z,10.05
2023-03-03T06:30:21.205Z,11.05
2023-03-03T06:32:51.833Z,10.60
2023-03-03T06:35:21.683Z,10.98
2023-03-03T06:37:51.718Z,11.00
2023-03-03T06:40:21.424Z,11.50
2023-03-03T06:42:50.540Z,10.98
2023-03-03T06:45:19.874Z,11.30
2023-03-03T06:47:51.416Z,12.05
2023-03-03T06:50:22.392Z,10.32
2023-03-03T06:53:06.532Z,9.38
2023-03-03T06:55:35.621Z,10.93
2023-03-03T06:58:12.243Z,10.55
2023-03-03T07:00:44.243Z,10.90
2023-03-03T07:03:17.398Z,9.98
2023-03-03T07:05:47.138Z,10.70
2023-03-03T07:08:19.028Z,9.88
2023-03-03T07:10:49.815Z,9.73
2023-03-03T07:13:22.162Z,10.73
2023-03-03T07:15:53.519Z,10.57
2023-03-03T07:18:48.485Z,8.95
2023-03-03T07:21:20.553Z,9.48
2023-03-03T07:23:51.531Z,10.40
2023-03-03T07:26:23.314Z,10.90
2023-03-03T07:28:55.973Z,11.02
2023-03-03T07:31:32.345Z,9.07
2023-03-03T07:34:03.592Z,9.75
2023-03-03T07:36:38.028Z,10.25
2023-03-03T07:39:26.845Z,10.57
2023-03-03T07:42:02.077Z,9.55
2023-03-03T07:44:37.802Z,9.73
2023-03-03T07:47:19.664Z,9.68
2023-03-03T07:49:51.735Z,9.95
2023-03-03T07:52:32.300Z,10.60
2023-03-03T07:55:21.353Z,10.38
2023-03-03T07:57:59.037Z,9.93
2023-03-03T08:01:13.073Z,9.27
2023-03-03T08:03:45.959Z,10.27
2023-03-03T08:06:41.472Z,8.80
2023-03-03T08:09:39.348Z,9.23
2023-03-03T08:12:26.060Z,9.50
2023-03-03T08:14:56.868Z,9.57
2023-03-03T08:17:37.287Z,9.52
2023-03-03T08:20:43.515Z,9.40
2023-03-03T08:23:15.550Z,7.80
2023-03-03T08:25:45.870Z,8.05
2023-03-03T08:28:15.317Z,7.22
2023-03-03T08:30:45.842Z,8.63
2023-03-03T08:33:15.608Z,7.55
2023-03-03T08:35:45.723Z,7.43
2023-03-03T08:38:18.741Z,6.68
2023-03-03T08:40:48.765Z,6.28
2023-03-03T08:43:21.640Z,7.95
2023-03-03T08:45:52.145Z,6.17
2023-03-03T08:48:23.199Z,7.57
2023-03-03T08:50:52.996Z,7.10
2023-03-03T08:53:24.649Z,7.60
2023-03-03T08:55:54.506Z,7.88
2023-03-03T08:58:34.686Z,7.57
2023-03-03T09:01:05.981Z,8.23
2023-03-03T09:03:35.522Z,7.75
2023-03-03T09:06:05.208Z,8.65
2023-03-03T09:08:36.293Z,7.70
2023-03-03T09:11:10.528Z,7.53
2023-03-03T09:13:39.745Z,7.38
2023-03-03T09:16:15.361Z,7.30
2023-03-03T09:18:46.251Z,7.57
2023-03-03T09:21:23.099Z,7.57
2023-03-03T09:23:58.272Z,7.90
2023-03-03T09:26:32.980Z,7.85
2023-03-03T09:29:23.669Z,6.85
2023-03-03T09:31:54.611Z,6.53
2023-03-03T09:34:28.669Z,6.75
2023-03-03T09:37:00.215Z,5.88
2023-03-03T09:39:32.560Z,6.53
2023-03-03T09:42:21.846Z,6.15
2023-03-03T09:45:27.386Z,5.13
2023-03-03T09:48:27.516Z,6.28
2023-03-03T09:51:08.649Z,6.22
2023-03-03T09:53:57.888Z,5.47
2023-03-03T09:56:34.208Z,5.53
2023-03-03T09:59:17.863Z,5.63
2023-03-03T10:02:04.907Z,6.10
2023-03-03T10:04:57.774Z,4.93
2023-03-03T10:07:40.430Z,5.88
2023-03-03T10:10:37.310Z,6.53
2023-03-03T10:13:21.166Z,5.80
2023-03-03T10:16:02.157Z,6.10
2023-03-03T10:18:34.348Z,5.25
2023-03-03T10:21:11.704Z,5.78
2023-03-03T10:23:56.244Z,5.88
2023-03-03T10:26:46.502Z,6.45
2023-03-03T10:29:31.028Z,5.88
2023-03-03T10:32:32.301Z,6.70
2023-03-03T10:35:26.062Z,6.13
2023-03-03T10:38:14.958Z,5.45
2023-03-03T10:40:52.421Z,5.60
2023-03-03T10:43:41.316Z,5.68
2023-03-03T10:46:25.765Z,5.00
2023-03-03T10:49:30.366Z,4.68
2023-03-03T10:55:05.660Z,4.45
2023-03-03T10:57:39.655Z,5.18
2023-03-03T11:00:21.962Z,5.20
2023-03-03T11:03:24.954Z,3.72
2023-03-03T11:06:00.213Z,4.15
2023-03-03T11:08:35.641Z,4.30
2023-03-03T11:11:18.562Z,4.32
2023-03-03T11:13:56.079Z,4.80
2023-03-03T11:16:38.428Z,5.18
2023-03-03T11:19:21.006Z,4.43
2023-03-03T11:21:59.877Z,3.72
2023-03-03T11:24:42.511Z,3.63
2023-03-03T11:27:27.947Z,3.58
2023-03-03T11:30:10.311Z,3.80
2023-03-03T11:32:50.393Z,3.70
2023-03-03T11:35:25.938Z,3.88
2023-03-03T11:38:08.300Z,3.22
2023-03-03T11:40:46.616Z,3.22
2023-03-03T11:43:35.773Z,3.63
2023-03-03T11:46:10.962Z,3.53
2023-03-03T11:48:47.448Z,4.10
2023-03-03T11:51:24.669Z,3.53
2023-03-03T11:54:02.694Z,3.05
2023-03-03T11:56:37.358Z,3.30
2023-03-03T11:59:35.615Z,3.72
2023-03-03T12:02:15.734Z,3.92
2023-03-03T12:04:51.468Z,3.67
2023-03-03T12:07:30.826Z,3.33
2023-03-03T12:10:15.839Z,3.47
2023-03-03T12:12:46.822Z,3.28
2023-03-03T12:15:27.901Z,3.80
2023-03-03T12:18:25.372Z,4.07
2023-03-03T12:21:15.681Z,3.50
2023-03-03T12:24:04.516Z,3.75
2023-03-03T12:26:45.814Z,3.63
2023-03-03T12:29:27.078Z,3.83
2023-03-03T12:32:14.239Z,3.92
2023-03-03T12:34:51.230Z,4.45
2023-03-03T12:37:42.045Z,3.92
2023-03-03T12:40:15.721Z,4.15
2023-03-03T12:45:37.877Z,3.45
2023-03-03T12:48:16.986Z,4.22
2023-03-03T12:50:59.212Z,3.92
2023-03-03T12:53:47.340Z,3.38
2023-03-03T12:56:25.705Z,4.28
2023-03-03T12:59:04.853Z,4.30
2023-03-03T13:01:47.083Z,4.68
2023-03-03T13:04:31.104Z,4.47
2023-03-03T13:09:43.822Z,3.80
2023-03-03T13:12:30.566Z,3.58
2023-03-03T13:15:13.833Z,2.90
2023-03-03T13:17:54.033Z,3.47
2023-03-03T13:20:32.040Z,3.70
2023-03-03T13:23:08.351Z,3.03
2023-03-03T13:25:52.718Z,3.42
2023-03-03T13:28:31.865Z,3.60
2023-03-03T13:31:10.022Z,3.50
2023-03-03T13:33:49.018Z,3.47
2023-03-03T13:36:19.933Z,3.30
2023-03-03T13:38:54.513Z,3.22
2023-03-03T13:41:28.715Z,3.78
2023-03-03T13:44:03.202Z,4.18
2023-03-03T13:46:42.220Z,3.95
2023-03-03T13:49:30.114Z,3.78
2023-03-03T13:52:03.617Z,3.83
2023-03-03T13:54:57.759Z,4.18
2023-03-03T14:00:22.760Z,4.53
2023-03-03T14:03:12.389Z,4.13
2023-03-03T14:05:45.542Z,4.13
2023-03-03T14:08:27.387Z,4.75
2023-03-03T14:11:08.658Z,4.97
2023-03-03T14:13:51.631Z,5.57
2023-03-03T14:16:33.419Z,6.43
2023-03-03T14:19:10.716Z,7.45
2023-03-03T14:21:46.700Z,7.45
2023-03-03T14:24:18.356Z,8.15
2023-03-03T14:26:49.721Z,8.38
2023-03-03T14:29:30.383Z,8.45
2023-03-03T14:32:01.546Z,8.18
2023-03-03T14:34:38.394Z,9.52
2023-03-03T14:37:24.460Z,8.80
2023-03-03T14:40:08.224Z,9.40
2023-03-03T14:42:48.544Z,9.68
2023-03-03T14:45:30.065Z,9.23
2023-03-03T14:48:07.121Z,9.07
2023-03-03T14:50:40.048Z,8.23
2023-03-03T14:53:17.302Z,8.57
2023-03-03T14:55:49.355Z,8.70
2023-03-03T14:58:31.453Z,8.00
2023-03-03T15:01:22.234Z,8.48
2023-03-03T15:04:00.780Z,7.93
2023-03-03T15:06:44.365Z,8.07
2023-03-03T15:09:33.880Z,9.38
2023-03-03T15:12:05.987Z,8.68
2023-03-03T15:14:39.671Z,8.45
2023-03-03T15:17:25.172Z,7.75
2023-03-03T15:20:10.684Z,9.20
2023-03-03T15:22:53.399Z,8.32
2023-03-03T15:25:42.556Z,8.27
2023-03-03T15:28:29.096Z,8.77
2023-03-03T15:31:04.942Z,7.70
2023-03-03T15:33:40.109Z,9.10
2023-03-03T15:36:15.197Z,8.65
2023-03-03T15:38:59.426Z,7.80
2023-03-03T15:41:41.010Z,8.60
2023-03-03T15:44:24.025Z,7.88
2023-03-03T15:47:13.185Z,7.97
2023-03-03T15:50:03.267Z,7.78
2023-03-03T15:52:46.790Z,8.05
2023-03-03T15:55:37.873Z,6.85
2023-03-03T15:58:29.869Z,6.18
2023-03-03T16:01:10.794Z,6.60
2023-03-03T16:03:46.538Z,6.78
2023-03-03T16:06:19.523Z,6.03
2023-03-03T16:08:57.823Z,6.32
2023-03-03T16:11:36.848Z,5.80
2023-03-03T16:14:21.603Z,5.82
2023-03-03T16:16:56.907Z,5.97
2023-03-03T16:19:41.306Z,6.18
2023-03-03T16:22:47.816Z,6.47
2023-03-03T16:25:30.437Z,6.28
2023-03-03T16:28:07.189Z,6.40
2023-03-03T16:30:40.265Z,7.20
2023-03-03T16:33:23.571Z,5.80
2023-03-03T16:36:04.276Z,6.25
2023-03-03T16:38:39.197Z,6.75
2023-03-03T16:41:14.565Z,6.82
2023-03-03T16:43:56.496Z,6.80
2023-03-03T16:46:34.925Z,6.07
2023-03-03T16:49:14.710Z,6.47
2023-03-03T16:51:50.056Z,5.82
2023-03-03T16:54:31.678Z,6.72
2023-03-03T16:57:10.911Z,6.45
2023-03-03T17:00:03.537Z,6.80
2023-03-03T17:02:54.250Z,6.10
2023-03-03T17:05:37.333Z,6.82
2023-03-03T17:08:21.988Z,5.80
2023-03-03T17:10:56.655Z,5.38
2023-03-03T17:13:47.727Z,6.20
2023-03-03T17:16:23.796Z,6.90
2023-03-03T17:19:02.796Z,6.30
2023-03-03T17:21:41.137Z,6.15
2023-03-03T17:24:21.588Z,5.50
2023-03-03T17:27:03.897Z,6.30
2023-03-03T17:29:48.174Z,6.32
2023-03-03T17:32:36.818Z,7.10
2023-03-03T17:35:22.841Z,6.05
2023-03-03T17:38:00.698Z,5.47
2023-03-03T17:40:49.828Z,6.30
2023-03-03T17:43:24.710Z,5.88
2023-03-03T17:45:57.587Z,5.40
2023-03-03T17:48:50.180Z,5.70
2023-03-03T17:51:57.131Z,5.07
2023-03-03T17:54:41.665Z,5.95
2023-03-03T17:57:25.907Z,6.32
2023-03-03T18:03:12.130Z,6.95
2023-03-03T18:06:06.434Z,6.43
2023-03-03T18:09:14.292Z,7.93
2023-03-03T18:12:05.267Z,7.78
2023-03-03T18:14:53.457Z,8.25
2023-03-03T18:17:35.775Z,8.10
2023-03-03T18:20:24.127Z,9.77
2023-03-03T18:22:55.516Z,8.38
2023-03-03T18:25:26.308Z,8.95
2023-03-03T18:28:22.128Z,9.43
2023-03-03T18:31:00.579Z,8.88
2023-03-03T18:33:41.420Z,10.40
2023-03-03T18:36:37.791Z,9.10
2023-03-03T18:39:15.836Z,10.27
2023-03-03T18:42:11.963Z,10.80
2023-03-03T18:44:41.397Z,11.65
2023-03-03T18:47:11.908Z,10.52
2023-03-03T18:49:59.357Z,11.05
2023-03-03T18:52:30.871Z,10.48
2023-03-03T18:55:24.423Z,10.68
2023-03-03T18:58:31.235Z,12.38
2023-03-03T19:01:04.455Z,11.90
2023-03-03T19:03:37.255Z,12.68
2023-03-03T19:06:10.363Z,13.43
2023-03-03T19:08:53.915Z,13.43
2023-03-03T19:11:38.734Z,13.15
2023-03-03T19:14:21.129Z,13.65
2023-03-03T19:16:52.298Z,12.82
2023-03-03T19:19:24.439Z,13.18
2023-03-03T19:22:22.808Z,14.68
2023-03-03T19:25:18.779Z,13.65
2023-03-03T19:28:05.653Z,13.75
2023-03-03T19:30:54.419Z,14.93
2023-03-03T19:33:52.521Z,14.35
2023-03-03T19:36:37.582Z,14.65
2023-03-03T19:42:05.583Z,14.85
2023-03-03T19:44:56.891Z,15.23
2023-03-03T19:47:37.337Z,14.30
2023-03-03T19:50:20.263Z,14.45
2023-03-03T19:52:56.368Z,14.77
2023-03-03T19:55:35.889Z,16.35
2023-03-03T19:58:14.364Z,14.90
2023-03-03T20:00:49.041Z,15.65
2023-03-03T20:03:41.732Z,14.70
2023-03-03T20:06:31.193Z,15.30
2023-03-03T20:09:05.070Z,15.10
2023-03-03T20:11:56.934Z,14.93
2023-03-03T20:14:46.229Z,13.63
2023-03-03T20:17:47.479Z,15.15
2023-03-03T20:20:46.945Z,14.48
2023-03-03T20:23:23.254Z,14.50
2023-03-03T20:26:00.122Z,14.70
2023-03-03T20:29:08.003Z,14.68
2023-03-03T20:31:45.820Z,13.13
2023-03-03T20:34:27.211Z,13.00
2023-03-03T20:37:06.264Z,12.60
2023-03-03T20:39:57.517Z,13.13
2023-03-03T20:42:38.634Z,13.18
2023-03-03T20:45:23.608Z,12.18
2023-03-03T20:48:08.219Z,13.25
2023-03-03T20:50:51.288Z,11.77
2023-03-03T20:53:27.876Z,12.30
2023-03-03T20:56:07.299Z,14.30
2023-03-03T20:58:47.579Z,13.40
2023-03-03T21:01:26.368Z,12.38
2023-03-03T21:03:56.747Z,13.68
2023-03-03T21:06:40.849Z,11.07
2023-03-03T21:11:52.982Z,11.10
2023-03-03T21:14:24.751Z,13.95
2023-03-03T21:16:56.841Z,12.70
2023-03-03T21:19:29.193Z,13.93
2023-03-03T21:22:02.572Z,13.00
2023-03-03T21:24:49.274Z,14.20
2023-03-03T21:27:29.894Z,12.75
2023-03-03T21:30:10.982Z,12.40
2023-03-03T21:32:42.971Z,13.75
2023-03-03T21:35:14.819Z,13.65
2023-03-03T21:37:48.622Z,14.93
2023-03-03T21:42:51.234Z,14.23
2023-03-03T21:45:21.460Z,13.95
2023-03-03T21:47:51.521Z,13.77
2023-03-03T21:50:21.539Z,13.20
2023-03-03T21:52:52.426Z,13.52
2023-03-03T21:55:21.891Z,12.18
2023-03-03T21:57:51.381Z,13.70
2023-03-03T22:00:21.595Z,13.10
2023-03-03T22:02:51.397Z,13.75
2023-03-03T22:05:20.889Z,12.07
2023-03-03T22:07:51.616Z,13.20
2023-03-03T22:10:20.908Z,13.77
2023-03-03T22:12:50.427Z,11.43
2023-03-03T22:15:19.666Z,13.50
2023-03-03T22:17:48.909Z,13.48
2023-03-03T22:20:18.606Z,13.60
2023-03-03T22:22:47.719Z,13.50
2023-03-03T22:25:18.886Z,13.48
2023-03-03T22:27:48.232Z,12.25
2023-03-03T22:30:18.411Z,12.48
2023-03-03T22:32:52.310Z,12.45
2023-03-03T22:35:21.744Z,11.23
2023-03-03T22:37:51.035Z,13.07
2023-03-03T22:40:22.109Z,9.70
2023-03-03T22:42:51.672Z,13.55
2023-03-03T22:45:21.164Z,11.13
2023-03-03T22:47:50.505Z,12.73
2023-03-03T22:50:20.345Z,12.05
2023-03-03T22:52:49.934Z,11.68
2023-03-03T22:55:19.397Z,11.23
2023-03-03T22:57:50.559Z,12.15
2023-03-03T23:00:21.585Z,12.00
2023-03-03T23:02:50.986Z,12.05
2023-03-03T23:05:20.671Z,13.43
2023-03-03T23:07:50.126Z,13.18
2023-03-03T23:10:20.208Z,13.68
2023-03-03T23:12:50.824Z,12.93
2023-03-03T23:15:20.478Z,12.18
2023-03-03T23:17:50.742Z,13.98
2023-03-03T23:20:22.547Z,13.20
2023-03-03T23:22:52.419Z,12.65
2023-03-03T23:25:23.085Z,13.48
2023-03-03T23:27:54.152Z,14.57
2023-03-03T23:30:24.451Z,13.07
2023-03-03T23:32:55.299Z,12.65
2023-03-03T23:35:24.789Z,14.77
2023-03-03T23:37:56.790Z,13.05
2023-03-03T23:40:26.376Z,13.82
2023-03-03T23:42:57.305Z,12.43
2023-03-03T23:45:26.323Z,13.82
2023-03-03T23:47:55.656Z,11.50
2023-03-03T23:50:25.062Z,12.20
2023-03-03T23:52:54.703Z,13.70
2023-03-03T23:55:24.462Z,13.75
2023-03-03T23:57:56.465Z,13.30
